Concordia, KS

10:01 PM CST on March 05, 2015 (GMT -0600)
Wind Energy Composite Lab | Change Station
CLOSE
Current Station
Personal Weather Station
Location: Concordia, KS
Elevation: 1457 ft
Nearby Weather Stations

Elev 1457 ft 39.56 °N, 97.66 °W | Updated 1 minute ago

Clear
Clear
33.6 °F
Feels Like 25 °F
N
11.0
Wind Variable Wind from South
Gusts 16.0 mph

Today
High -- | Low -- °F
--% Chance of Precip.
Yesterday
High -- | Low -- °F
Precip. -- in
6:57 AM 6:26 PM
Full, 100% visible
Pressure 30.38 in
Visibility 10.0 miles
Clouds Clear
Windchill 25 °F
Dew Point 15 °F
Humidity 46%
Rainfall in
Snow Depth Not available.
UV 0 out of 12
Pollen 1.60 out of 12
Air Quality Not available.
Flu Activity Not available.
METAR KCNK 060355Z AUTO 17011KT 10SM CLR 00/M10 A3033 RMK AO2 SLP286 T00001100

More Conditions Fewer Conditions

Pressure 30.38 in
Visibility 10.0 miles
Clouds Clear
Windchill 25 °F
Dew Point 15 °F
Humidity 46%
Rainfall in
Snow Depth Not available.
UV 0 out of 12
Pollen 1.60 out of 12
Air Quality Not available.
Flu Activity Not available.
METAR KCNK 060355Z AUTO 17011KT 10SM CLR 00/M10 A3033 RMK AO2 SLP286 T00001100

More Conditions Fewer Conditions

10-Day Weather Forecast

Almanac

Astronomy

Mar. 05, 2015 Rise Set
Actual Time
Civil Twilight
Nautical Twilight
Astronomical Twilight
Moon
Length of Visible Light
Length of Day
Tomorrow will be .
, % of the Moon is Illuminated

Today's Extremes

State Highs State Lows

Community

WunderPhotos

Upload Photos

1,803,176 photos uploaded!

WunderBlogs® & News

Nearby

Air Quality

  Air Quality AQ Index Pollutant
Not available.

Snow Depth

Station Depth Elevation

Earthquake Activity

City Distance Mag. Time & Date
Minimum magnitude displayed is 2.5.

Coastal Water Temperatures

Place Temperature

Nearby Weather Stations